Time;durP1;ratioP1;P1;durP2;ratioP2;P2;SDS_P1;SDS_P2;PMS_P1;PMS_P2;Temp;Humidity;BMP_temperature;BMP_pressure;BME280_temperature;BME280_humidity;BME280_pressure;Samples;Min_cycle;Max_cycle;Signal;HPM_P1;HPM_P2
2022/06/17 00:00:15;;;;;;;;;7.25;6.75;;;;;15.48;51.80;100689.78;5095094;28;8830;-62
2022/06/17 00:02:43;;;;;;;;;8.00;7.00;;;;;15.45;51.99;100702.63;5094767;28;8834;-62
2022/06/17 00:05:11;;;;;;;;;6.25;6.00;;;;;15.39;51.66;100703.19;5096647;28;8932;-63
2022/06/17 00:07:39;;;;;;;;;10.50;9.00;;;;;15.33;51.96;100704.56;5096122;28;8903;-63
2022/06/17 00:10:07;;;;;;;;;7.00;6.75;;;;;15.25;52.21;100719.59;5096039;28;8840;-63
2022/06/17 00:12:35;;;;;;;;;6.00;6.00;;;;;15.15;52.38;100716.00;5095729;28;8853;-63
2022/06/17 00:15:15;;;;;;;;;6.50;6.50;;;;;15.07;52.34;100713.97;5094827;28;9390;-63
2022/06/17 00:17:44;;;;;;;;;9.00;9.00;;;;;14.97;52.71;100704.16;5094562;28;8845;-63
2022/06/17 00:20:12;;;;;;;;;6.25;6.25;;;;;14.86;52.92;100707.75;5113339;28;8974;-63
2022/06/17 00:22:40;;;;;;;;;8.25;7.00;;;;;14.77;53.39;100697.81;5114904;28;8874;-63
2022/06/17 00:25:08;;;;;;;;;6.00;6.00;;;;;14.69;54.00;100697.63;5114901;28;8832;-63
2022/06/17 00:27:36;;;;;;;;;8.50;6.50;;;;;14.63;53.57;100691.94;5110885;28;8849;-63
2022/06/17 00:30:04;;;;;;;;;7.00;6.75;;;;;14.55;53.89;100694.38;5076151;28;8832;-63
2022/06/17 00:32:31;;;;;;;;;6.25;6.25;;;;;14.49;53.89;100684.19;5096022;28;8844;-64
2022/06/17 00:34:59;;;;;;;;;6.50;6.50;;;;;14.44;53.98;100681.03;5095847;28;8854;-63
2022/06/17 00:37:27;;;;;;;;;6.50;6.50;;;;;14.38;53.97;100676.19;5094440;28;8960;-63
2022/06/17 00:39:55;;;;;;;;;6.25;5.00;;;;;14.33;54.21;100681.94;5094350;28;8826;-63
2022/06/17 00:42:23;;;;;;;;;6.50;6.00;;;;;14.27;54.63;100682.44;5094990;28;8878;-63
2022/06/17 00:44:51;;;;;;;;;5.75;5.75;;;;;14.23;54.40;100677.47;5094762;28;8980;-63
2022/06/17 00:47:19;;;;;;;;;6.00;6.00;;;;;14.20;54.49;100675.06;5095035;28;8961;-63
2022/06/17 00:49:47;;;;;;;;;6.75;6.75;;;;;14.17;54.74;100675.25;5094890;28;8980;-62
2022/06/17 00:52:15;;;;;;;;;6.25;6.25;;;;;14.14;54.38;100680.88;5094308;28;8926;-63
2022/06/17 00:54:43;;;;;;;;;4.00;4.00;;;;;14.12;54.17;100669.44;5094982;28;8908;-66
2022/06/17 00:57:11;;;;;;;;;6.00;6.00;;;;;14.10;54.69;100663.34;5095461;28;8980;-63
2022/06/17 00:59:39;;;;;;;;;9.00;9.00;;;;;14.07;54.63;100658.25;5114633;28;8905;-63
2022/06/17 01:02:07;;;;;;;;;6.00;5.00;;;;;14.02;54.14;100657.78;5115903;28;8823;-63
2022/06/17 01:04:35;;;;;;;;;7.00;7.00;;;;;13.96;54.47;100655.63;5115826;28;8828;-63
2022/06/17 01:07:03;;;;;;;;;9.00;7.50;;;;;13.90;54.54;100659.63;5116125;28;8840;-63
2022/06/17 01:12:17;;;;;;;;;6.50;6.00;;;;;13.76;54.79;100662.63;5116034;28;8875;-62
2022/06/17 01:14:45;;;;;;;;;4.00;4.00;;;;;13.72;55.13;100670.97;5116021;28;8827;-64
2022/06/17 01:17:13;;;;;;;;;9.00;7.00;;;;;13.66;54.74;100658.13;5115818;28;8842;-63
2022/06/17 01:19:46;;;;;;;;;6.75;6.50;;;;;13.64;55.21;100660.03;5116063;28;8840;-63
2022/06/17 01:22:14;;;;;;;;;5.00;5.00;;;;;13.63;55.01;100663.69;5114112;28;8854;-64
2022/06/17 01:24:43;;;;;;;;;5.00;4.50;;;;;13.64;54.99;100671.63;5114386;28;8962;-63
2022/06/17 01:27:10;;;;;;;;;7.50;7.50;;;;;13.67;55.14;100673.19;5112916;28;8859;-63
2022/06/17 01:29:39;;;;;;;;;6.00;5.00;;;;;13.69;55.16;100668.56;5095568;28;8879;-62
2022/06/17 01:32:07;;;;;;;;;6.00;6.00;;;;;13.70;54.79;100678.28;5095124;28;8833;-63
2022/06/17 01:34:35;;;;;;;;;7.50;7.00;;;;;13.73;54.67;100689.59;5094890;28;8992;-63
2022/06/17 01:37:03;;;;;;;;;7.00;5.50;;;;;13.78;54.98;100692.78;5095457;28;8895;-63
2022/06/17 01:39:31;;;;;;;;;6.75;5.50;;;;;13.83;54.59;100689.72;5095127;28;8819;-62
2022/06/17 01:41:59;;;;;;;;;2.50;2.50;;;;;13.87;54.71;100688.47;5099110;28;8931;-62
2022/06/17 01:44:27;;;;;;;;;6.50;6.00;;;;;13.89;54.78;100692.75;5099329;28;8918;-63
2022/06/17 01:46:55;;;;;;;;;4.50;3.75;;;;;13.91;54.81;100706.88;5099182;28;8834;-62
2022/06/17 01:49:23;;;;;;;;;8.00;6.75;;;;;13.94;54.89;100695.03;5098958;28;8834;-62
2022/06/17 01:51:51;;;;;;;;;5.75;5.75;;;;;13.97;54.81;100689.47;5098794;28;8961;-63
2022/06/17 01:54:19;;;;;;;;;6.25;6.00;;;;;13.98;54.88;100692.00;5099576;28;8890;-63
2022/06/17 01:56:47;;;;;;;;;4.00;3.50;;;;;13.98;54.76;100689.31;5098829;28;8837;-62
2022/06/17 01:59:15;;;;;;;;;4.00;4.00;;;;;13.95;54.51;100696.75;5115174;28;8856;-63
2022/06/17 02:01:43;;;;;;;;;9.00;8.00;;;;;13.92;54.51;100697.00;5098901;28;8818;-64
2022/06/17 02:04:10;;;;;;;;;6.00;5.75;;;;;13.84;54.60;100704.81;5099804;28;8941;-62
2022/06/17 02:06:38;;;;;;;;;3.00;3.00;;;;;13.75;55.22;100698.34;5098818;28;8830;-64
2022/06/17 02:09:06;;;;;;;;;6.00;6.00;;;;;13.68;55.34;100696.31;5098799;28;8850;-62
2022/06/17 02:11:34;;;;;;;;;5.75;5.00;;;;;13.63;55.03;100696.69;5098623;28;8846;-63
2022/06/17 02:14:06;;;;;;;;;5.50;5.50;;;;;13.56;55.38;100694.59;5097145;28;8846;-63
2022/06/17 02:16:34;;;;;;;;;6.00;6.00;;;;;13.47;55.43;100690.00;5097438;28;8877;-63
2022/06/17 02:19:02;;;;;;;;;8.50;7.50;;;;;13.42;55.90;100689.50;5098429;28;8826;-63
2022/06/17 02:21:30;;;;;;;;;6.00;6.00;;;;;13.36;55.92;100687.34;5098407;28;8948;-63
2022/06/17 02:23:58;;;;;;;;;4.25;4.25;;;;;13.33;55.69;100687.56;5098932;28;8860;-62
2022/06/17 02:26:26;;;;;;;;;6.00;6.00;;;;;13.28;56.20;100682.56;5098168;28;8829;-63
2022/06/17 02:28:54;;;;;;;;;6.00;6.00;;;;;13.26;56.27;100683.66;5113944;28;8850;-62
2022/06/17 02:31:21;;;;;;;;;9.25;7.00;;;;;13.23;55.98;100682.06;5118637;28;8824;-63
2022/06/17 02:33:51;;;;;;;;;6.00;6.00;;;;;13.21;55.88;100688.53;5118632;28;8920;-63
2022/06/17 02:36:20;;;;;;;;;6.50;6.50;;;;;13.22;56.16;100698.25;5118490;28;8851;-64
2022/06/17 02:38:47;;;;;;;;;7.00;7.00;;;;;13.21;56.07;100699.25;5118694;28;8832;-63
2022/06/17 02:41:16;;;;;;;;;6.75;6.75;;;;;13.22;56.32;100695.59;5117910;28;8832;-63
2022/06/17 02:43:44;;;;;;;;;9.25;8.00;;;;;13.21;56.15;100696.56;5118498;28;8958;-62
2022/06/17 02:46:12;;;;;;;;;11.50;8.50;;;;;13.22;56.30;100704.44;5118836;28;8850;-62
2022/06/17 02:48:39;;;;;;;;;9.00;8.00;;;;;13.22;56.24;100704.44;5116996;28;8828;-62
2022/06/17 02:51:07;;;;;;;;;8.00;7.00;;;;;13.21;55.95;100699.25;5116780;28;8862;-62
2022/06/17 02:53:35;;;;;;;;;8.00;7.00;;;;;13.21;56.27;100699.25;5116434;28;8997;-63
2022/06/17 02:56:03;;;;;;;;;7.25;7.25;;;;;13.21;56.10;100701.91;5116784;28;8842;-63
2022/06/17 02:58:31;;;;;;;;;7.50;6.25;;;;;13.20;56.18;100702.88;5104103;28;8814;-62
2022/06/17 03:00:59;;;;;;;;;6.00;6.00;;;;;13.18;56.18;100696.78;5096231;28;9648;-62
2022/06/17 03:03:27;;;;;;;;;6.00;6.00;;;;;13.15;56.80;100697.88;5095946;28;8948;-64
2022/06/17 03:05:56;;;;;;;;;9.00;9.00;;;;;13.12;56.34;100699.94;5096481;28;8992;-64
2022/06/17 03:08:24;;;;;;;;;8.00;8.00;;;;;13.08;56.29;100701.16;5097561;28;8814;-63
2022/06/17 03:10:52;;;;;;;;;6.25;5.50;;;;;13.02;56.63;100696.28;5097770;28;8836;-63
2022/06/17 03:13:19;;;;;;;;;7.00;7.00;;;;;12.99;56.83;100697.38;5097402;28;9785;-63
2022/06/17 03:15:47;;;;;;;;;9.00;7.50;;;;;12.98;56.81;100697.50;5096547;28;8826;-62
2022/06/17 03:18:15;;;;;;;;;6.25;5.25;;;;;12.98;56.65;100693.00;5096498;28;8858;-63
2022/06/17 03:20:43;;;;;;;;;6.75;6.00;;;;;12.98;56.44;100692.16;5096275;28;8947;-63
2022/06/17 03:23:11;;;;;;;;;6.50;6.00;;;;;13.00;56.77;100698.22;5096254;28;8854;-63
2022/06/17 03:25:39;;;;;;;;;8.25;7.50;;;;;13.02;56.71;100696.28;5096336;28;8834;-63
2022/06/17 03:28:06;;;;;;;;;7.50;6.75;;;;;13.02;56.61;100698.97;5101715;28;8842;-64
2022/06/17 03:30:34;;;;;;;;;7.00;6.00;;;;;13.00;56.74;100706.25;5095689;28;8822;-63
2022/06/17 03:33:02;;;;;;;;;7.00;7.00;;;;;12.98;56.86;100702.84;5096260;28;8834;-63
2022/06/17 03:35:31;;;;;;;;;5.75;5.50;;;;;12.96;56.95;100707.44;5096316;28;8864;-63
2022/06/17 03:37:59;;;;;;;;;6.50;6.00;;;;;12.93;57.01;100700.47;5096784;28;8846;-64
2022/06/17 03:40:26;;;;;;;;;9.00;6.75;;;;;12.94;56.76;100706.69;5096654;28;8845;-63
2022/06/17 03:42:54;;;;;;;;;6.25;6.25;;;;;12.94;56.46;100704.91;5096447;28;8838;-64
2022/06/17 03:45:22;;;;;;;;;6.00;6.00;;;;;12.92;56.64;100704.13;5097205;28;8844;-63
2022/06/17 03:47:50;;;;;;;;;5.50;5.50;;;;;12.88;56.67;100708.00;5097689;28;8830;-62
2022/06/17 03:50:18;;;;;;;;;6.50;6.50;;;;;12.83;57.03;100702.16;5097515;28;8842;-63
2022/06/17 03:52:46;;;;;;;;;6.00;6.00;;;;;12.80;57.30;100694.38;5097202;28;8853;-62
2022/06/17 03:55:13;;;;;;;;;1.00;1.00;;;;;12.80;57.29;100693.53;5096856;28;9585;-62
2022/06/17 03:57:41;;;;;;;;;7.50;4.75;;;;;12.80;57.05;100704.22;5104784;28;8834;-63
2022/06/17 04:00:09;;;;;;;;;6.50;5.50;;;;;12.81;57.30;100709.44;5117746;28;8819;-63
2022/06/17 04:02:37;;;;;;;;;6.75;6.25;;;;;12.85;57.13;100707.41;5118103;28;8846;-63
2022/06/17 04:05:06;;;;;;;;;5.00;4.00;;;;;12.93;56.51;100702.31;5117642;28;8831;-62
2022/06/17 04:07:34;;;;;;;;;4.50;4.50;;;;;13.05;56.77;100706.75;5117478;28;8974;-63
2022/06/17 04:10:02;;;;;;;;;8.00;8.00;;;;;13.13;56.59;100705.16;5117142;28;8839;-62
2022/06/17 04:12:30;;;;;;;;;10.00;7.00;;;;;13.19;56.03;100706.50;5116533;28;8855;-63
2022/06/17 04:14:58;;;;;;;;;7.50;7.00;;;;;13.27;56.59;100704.09;5113594;28;8838;-63
2022/06/17 04:17:26;;;;;;;;;7.50;6.75;;;;;13.41;55.85;100709.19;5115902;28;8955;-64
2022/06/17 04:19:54;;;;;;;;;5.00;5.00;;;;;13.63;55.97;100701.16;5116782;28;9502;-66
2022/06/17 04:22:21;;;;;;;;;6.50;6.50;;;;;13.86;55.65;100703.72;5116113;28;8827;-63
2022/06/17 04:24:49;;;;;;;;;6.25;5.50;;;;;14.08;54.93;100700.13;5105309;28;9510;-63
2022/06/17 04:27:17;;;;;;;;;6.75;6.00;;;;;14.28;54.97;100694.03;5096253;28;8858;-63
2022/06/17 04:29:45;;;;;;;;;8.00;7.00;;;;;14.47;54.94;100695.03;5095934;28;8846;-63
2022/06/17 04:32:13;;;;;;;;;9.00;8.50;;;;;14.68;54.54;100700.44;5095923;28;8838;-63
2022/06/17 04:34:41;;;;;;;;;8.00;8.00;;;;;14.86;54.54;100698.88;5095125;28;8841;-63
2022/06/17 04:37:12;;;;;;;;;6.75;6.00;;;;;15.01;54.37;100716.34;5095433;28;8834;-63
2022/06/17 04:39:39;;;;;;;;;8.00;7.50;;;;;15.16;53.63;100728.44;5093951;28;8848;-63
2022/06/17 04:42:07;;;;;;;;;7.00;6.50;;;;;15.31;53.62;100729.81;5093596;28;8854;-63
2022/06/17 04:44:35;;;;;;;;;9.00;7.50;;;;;15.46;53.28;100725.84;5094226;28;9630;-64
2022/06/17 04:47:03;;;;;;;;;9.00;8.00;;;;;15.54;53.05;100713.41;5094029;28;8834;-62
2022/06/17 04:49:31;;;;;;;;;5.50;5.00;;;;;15.63;53.27;100715.28;5093863;28;8830;-63
2022/06/17 04:51:58;;;;;;;;;7.50;6.50;;;;;15.69;52.93;100711.25;5093386;28;8864;-63
2022/06/17 04:54:26;;;;;;;;;9.00;9.00;;;;;15.76;52.65;100710.53;5093795;28;8826;-62
2022/06/17 04:56:54;;;;;;;;;7.00;6.50;;;;;15.86;52.87;100714.09;5092106;28;8850;-63
2022/06/17 04:59:22;;;;;;;;;8.75;7.00;;;;;15.90;52.79;100712.84;5092470;28;8841;-63
2022/06/17 05:01:50;;;;;;;;;9.00;8.00;;;;;15.94;52.63;100713.44;5092321;28;8968;-63
2022/06/17 05:04:17;;;;;;;;;6.50;6.50;;;;;16.02;52.76;100705.53;5092158;28;8834;-63
2022/06/17 05:06:45;;;;;;;;;9.00;8.50;;;;;16.07;53.28;100701.44;5092758;28;8814;-63
2022/06/17 05:09:13;;;;;;;;;7.00;6.75;;;;;16.08;53.16;100708.50;5093299;28;8840;-63
2022/06/17 05:11:41;;;;;;;;;10.00;9.00;;;;;16.04;53.26;100703.56;5091727;28;9515;-62
2022/06/17 05:14:09;;;;;;;;;9.00;9.00;;;;;16.09;53.65;100712.91;5091467;28;8846;-63
2022/06/17 05:16:36;;;;;;;;;8.75;8.75;;;;;16.20;53.45;100704.72;5096633;28;9488;-63
2022/06/17 05:19:05;;;;;;;;;7.00;6.25;;;;;16.37;52.93;100704.06;5097790;28;8834;-63
2022/06/17 05:21:32;;;;;;;;;7.00;7.00;;;;;16.50;52.99;100708.16;5097175;28;8840;-64
2022/06/17 05:24:00;;;;;;;;;11.25;8.50;;;;;16.64;52.24;100707.75;5097245;28;9312;-63
2022/06/17 05:26:28;;;;;;;;;8.00;6.75;;;;;16.77;52.41;100711.00;5098444;28;8850;-63
2022/06/17 05:28:56;;;;;;;;;7.00;6.00;;;;;16.92;52.12;100706.03;5098053;28;8837;-63
2022/06/17 05:31:24;;;;;;;;;7.50;7.50;;;;;17.07;51.83;100712.66;5097118;28;8826;-63
2022/06/17 05:33:51;;;;;;;;;10.00;10.00;;;;;17.23;51.69;100710.25;5097152;28;8860;-63
2022/06/17 05:36:20;;;;;;;;;11.50;10.50;;;;;17.36;51.70;100697.31;5096674;28;8830;-63
2022/06/17 05:38:47;;;;;;;;;9.00;9.00;;;;;17.47;51.76;100703.38;5096815;28;9507;-63
2022/06/17 05:41:15;;;;;;;;;8.50;8.50;;;;;17.59;51.62;100695.97;5074665;28;9150;-63
2022/06/17 05:43:43;;;;;;;;;10.00;10.00;;;;;17.68;51.37;100703.19;5084529;28;8968;-65
2022/06/17 05:46:11;;;;;;;;;12.00;11.50;;;;;17.76;50.82;100698.72;5097920;28;8853;-63
2022/06/17 05:48:39;;;;;;;;;8.50;7.50;;;;;17.90;50.95;100703.63;5097249;28;8846;-63
2022/06/17 05:51:07;;;;;;;;;10.00;9.00;;;;;17.98;50.62;100714.50;5095515;28;8972;-64
2022/06/17 05:53:35;;;;;;;;;9.75;9.00;;;;;18.00;50.89;100717.88;5093893;28;8837;-63
2022/06/17 05:56:03;;;;;;;;;11.50;10.00;;;;;18.01;51.22;100713.38;5094114;28;8850;-63
2022/06/17 05:58:31;;;;;;;;;10.80;9.20;;;;;18.03;51.09;100712.22;5093260;28;8842;-62
2022/06/17 06:00:59;;;;;;;;;9.00;9.00;;;;;18.17;50.91;100709.03;5093635;28;8826;-63
2022/06/17 06:03:27;;;;;;;;;7.00;7.00;;;;;18.33;50.28;100711.91;5094068;28;8830;-63
2022/06/17 06:05:55;;;;;;;;;10.00;9.25;;;;;18.52;50.56;100700.97;5095585;28;8916;-63
2022/06/17 06:08:23;;;;;;;;;10.00;9.60;;;;;18.74;49.98;100694.28;5095781;28;8846;-63
2022/06/17 06:10:51;;;;;;;;;10.00;10.00;;;;;18.96;49.87;100693.78;5095497;28;8845;-63
2022/06/17 06:13:18;;;;;;;;;10.20;9.80;;;;;19.14;49.67;100700.84;5096012;28;8814;-63
2022/06/17 06:15:46;;;;;;;;;7.80;7.80;;;;;19.32;48.93;100696.28;5095809;28;8978;-63
2022/06/17 06:18:14;;;;;;;;;8.00;8.00;;;;;19.49;48.97;100705.34;5094953;28;8958;-63
2022/06/17 06:20:42;;;;;;;;;7.40;7.40;;;;;19.59;48.95;100698.81;5095116;28;8846;-63
2022/06/17 06:23:10;;;;;;;;;8.60;8.60;;;;;19.67;48.39;100696.16;5094575;28;8912;-66
2022/06/17 06:25:38;;;;;;;;;10.00;8.20;;;;;19.70;48.97;100687.69;5095443;28;9646;-63
2022/06/17 06:28:06;;;;;;;;;10.00;10.00;;;;;19.68;49.19;100702.38;5093262;28;8838;-63
2022/06/17 06:30:33;;;;;;;;;8.00;7.80;;;;;19.63;49.14;100704.72;5094333;28;8855;-64
2022/06/17 06:33:01;;;;;;;;;7.00;6.60;;;;;19.55;49.29;100702.81;5093418;28;8980;-64
2022/06/17 06:35:29;;;;;;;;;7.20;7.20;;;;;19.46;49.84;100713.75;5095126;28;8822;-63
2022/06/17 06:37:57;;;;;;;;;8.00;8.00;;;;;19.53;49.71;100715.66;5096137;28;9503;-63
2022/06/17 06:40:25;;;;;;;;;11.80;10.40;;;;;19.71;48.83;100705.59;5096682;28;8868;-63
2022/06/17 06:42:52;;;;;;;;;10.00;8.80;;;;;19.95;49.08;100708.41;5097129;28;8861;-63
2022/06/17 06:45:20;;;;;;;;;8.00;8.00;;;;;20.16;48.77;100702.63;5095843;28;8849;-63
2022/06/17 06:47:48;;;;;;;;;8.00;6.60;;;;;20.37;47.88;100697.59;5096446;28;9537;-63
2022/06/17 06:50:16;;;;;;;;;10.60;10.00;;;;;20.55;47.55;100704.56;5095142;28;8834;-63
2022/06/17 06:52:44;;;;;;;;;10.40;9.40;;;;;20.73;47.50;100697.16;5094313;28;8860;-63
2022/06/17 06:55:12;;;;;;;;;11.00;10.40;;;;;20.92;47.46;100694.13;5094060;28;8838;-63
2022/06/17 06:57:39;;;;;;;;;10.40;8.60;;;;;21.08;46.98;100696.81;5094110;28;8883;-63
2022/06/17 07:00:07;;;;;;;;;10.60;10.40;;;;;21.23;46.88;100693.25;5095749;28;8964;-63
2022/06/17 07:02:35;;;;;;;;;7.40;7.00;;;;;21.40;46.49;100694.09;5095156;28;8834;-63
2022/06/17 07:05:03;;;;;;;;;9.20;8.40;;;;;21.56;46.78;100696.75;5095893;28;8834;-63
2022/06/17 07:07:37;;;;;;;;;9.40;8.00;;;;;21.71;46.51;100686.91;5095332;28;9576;-63
2022/06/17 07:10:05;;;;;;;;;7.40;6.80;;;;;21.84;46.35;100684.47;5096066;28;8968;-63
2022/06/17 07:12:33;;;;;;;;;6.80;5.80;;;;;21.87;46.56;100682.25;5094727;28;8892;-63
2022/06/17 07:15:00;;;;;;;;;4.80;4.40;;;;;21.97;46.53;100695.63;5095778;28;8968;-65
2022/06/17 07:17:29;;;;;;;;;8.60;8.00;;;;;22.11;46.35;100692.16;5095028;28;8840;-63
2022/06/17 07:19:57;;;;;;;;;5.60;5.00;;;;;22.19;45.79;100697.53;5095576;28;8838;-63
2022/06/17 07:22:24;;;;;;;;;5.00;5.00;;;;;22.23;45.92;100683.44;5092010;28;9621;-63
2022/06/17 07:24:52;;;;;;;;;7.60;6.00;;;;;22.26;46.18;100682.25;5091453;28;9573;-63
2022/06/17 07:27:20;;;;;;;;;9.00;8.20;;;;;22.27;45.84;100682.06;5092656;28;8863;-63
2022/06/17 07:29:48;;;;;;;;;8.80;6.80;;;;;22.24;46.11;100676.97;5091906;28;8838;-63
2022/06/17 07:32:16;;;;;;;;;8.00;8.00;;;;;22.17;46.67;100676.00;5091856;28;8888;-63
2022/06/17 07:34:44;;;;;;;;;5.00;5.00;;;;;22.12;46.40;100683.00;5091438;28;8841;-63
2022/06/17 07:39:58;;;;;;;;;6.00;6.00;;;;;21.97;47.16;100682.03;5091127;28;9520;-63
2022/06/17 07:42:26;;;;;;;;;7.60;6.00;;;;;21.97;47.22;100680.19;5091038;28;8930;-63
2022/06/17 07:44:53;;;;;;;;;6.00;6.00;;;;;22.09;46.46;100677.94;5091487;28;8856;-63
2022/06/17 07:47:21;;;;;;;;;7.60;6.00;;;;;22.26;46.75;100669.53;5092571;28;8860;-64
2022/06/17 07:49:49;;;;;;;;;6.20;5.60;;;;;22.44;45.95;100671.97;5094570;28;8846;-63
2022/06/17 07:52:17;;;;;;;;;5.60;5.40;;;;;22.60;45.58;100672.72;5094123;28;8960;-63
2022/06/17 07:54:45;;;;;;;;;6.00;6.00;;;;;22.77;45.34;100673.44;5094526;28;8834;-64
2022/06/17 07:57:14;;;;;;;;;4.20;4.20;;;;;22.92;45.31;100663.47;5093850;28;8836;-64
2022/06/17 07:59:42;;;;;;;;;5.40;4.80;;;;;23.03;44.78;100658.44;5094022;28;8940;-63
2022/06/17 08:02:10;;;;;;;;;5.40;5.00;;;;;23.14;44.88;100648.97;5092899;28;8958;-63
2022/06/17 08:04:40;;;;;;;;;6.00;6.00;;;;;23.27;44.91;100650.06;5092890;28;8861;-64
2022/06/17 08:07:08;;;;;;;;;2.60;2.00;;;;;23.45;44.25;100649.69;5093623;28;8849;-64
2022/06/17 08:09:36;;;;;;;;;6.00;6.00;;;;;23.59;44.68;100643.41;5092812;28;8850;-63
2022/06/17 08:12:08;;;;;;;;;8.60;7.60;;;;;23.72;44.17;100655.31;5092705;28;8862;-63
2022/06/17 08:14:37;;;;;;;;;5.00;4.80;;;;;23.80;44.31;100640.75;5092547;28;8965;-63
2022/06/17 08:17:05;;;;;;;;;3.40;3.20;;;;;23.90;43.84;100649.53;5091535;28;8942;-64
2022/06/17 08:19:33;;;;;;;;;5.40;5.40;;;;;23.96;44.07;100644.16;5091606;28;8818;-64
2022/06/17 08:22:01;;;;;;;;;5.60;5.00;;;;;24.04;43.37;100637.75;5093055;28;8844;-64
2022/06/17 08:24:29;;;;;;;;;5.60;5.20;;;;;24.13;43.59;100636.63;5093365;28;8825;-64
2022/06/17 08:26:57;;;;;;;;;6.00;6.00;;;;;24.19;43.55;100635.84;5093358;28;8834;-64
2022/06/17 08:29:26;;;;;;;;;5.80;5.00;;;;;24.28;43.28;100634.69;5093950;28;8978;-64
2022/06/17 08:34:59;;;;;;;;;5.20;5.20;;;;;24.51;42.63;100627.19;5092621;28;8892;-64
2022/06/17 08:37:27;;;;;;;;;5.60;5.60;;;;;24.57;42.85;100631.88;5093167;28;8988;-64
2022/06/17 08:39:55;;;;;;;;;6.60;6.40;;;;;24.70;42.73;100637.44;5093683;28;8833;-64
2022/06/17 08:42:25;;;;;;;;;3.00;3.00;;;;;24.84;42.02;100647.44;5093873;28;8865;-64
2022/06/17 08:44:53;;;;;;;;;5.00;5.00;;;;;24.96;41.91;100645.88;5093294;28;8826;-64
2022/06/17 08:47:21;;;;;;;;;5.80;5.60;;;;;25.06;41.74;100636.31;5092523;28;8866;-63
2022/06/17 08:49:50;;;;;;;;;5.00;5.00;;;;;25.17;41.70;100643.09;5091177;28;9569;-64
2022/06/17 08:52:18;;;;;;;;;5.40;5.40;;;;;25.28;41.34;100639.84;5091255;28;8858;-63
2022/06/17 08:54:46;;;;;;;;;6.40;6.00;;;;;25.39;41.23;100642.84;5089771;28;9662;-63
2022/06/17 08:57:13;;;;;;;;;5.80;5.60;;;;;25.51;40.62;100644.00;5091846;28;9606;-63
2022/06/17 08:59:41;;;;;;;;;6.00;6.00;;;;;25.58;40.67;100642.97;5092211;28;8880;-64
2022/06/17 09:02:13;;;;;;;;;4.20;3.00;;;;;25.66;40.72;100645.53;5092070;28;8849;-64
2022/06/17 09:04:42;;;;;;;;;5.00;5.00;;;;;25.72;40.61;100646.59;5093191;28;8828;-63
2022/06/17 09:07:09;;;;;;;;;7.00;7.00;;;;;25.88;40.50;100643.59;5091976;28;8951;-64
2022/06/17 09:09:38;;;;;;;;;5.00;5.00;;;;;26.07;39.91;100638.22;5092322;28;8833;-64
2022/06/17 09:12:06;;;;;;;;;6.00;6.00;;;;;26.23;39.58;100635.13;5090667;28;8858;-64
2022/06/17 09:14:33;;;;;;;;;6.40;5.20;;;;;26.30;39.86;100632.38;5090528;28;8974;-64
2022/06/17 09:17:01;;;;;;;;;3.60;3.00;;;;;26.40;39.41;100636.41;5093291;28;8858;-64
2022/06/17 09:19:29;;;;;;;;;6.20;5.60;;;;;26.53;39.11;100628.28;5093278;28;8834;-64
2022/06/17 09:21:57;;;;;;;;;4.40;4.00;;;;;26.66;39.48;100627.47;5092713;28;9530;-64
2022/06/17 09:24:25;;;;;;;;;6.80;6.80;;;;;26.75;38.95;100631.66;5092391;28;8846;-64
2022/06/17 09:26:53;;;;;;;;;6.00;6.00;;;;;26.82;38.90;100622.44;5091933;28;8845;-64
2022/06/17 09:29:20;;;;;;;;;4.80;4.80;;;;;26.91;39.06;100620.31;5092334;28;9429;-64
2022/06/17 09:31:48;;;;;;;;;7.40;7.00;;;;;27.07;39.12;100619.88;5092331;28;8903;-64
2022/06/17 09:34:16;;;;;;;;;6.60;6.40;;;;;27.24;38.75;100621.19;5092253;28;8853;-64
2022/06/17 09:36:45;;;;;;;;;6.40;5.40;;;;;27.32;38.22;100613.56;5092691;28;8842;-64
2022/06/17 09:39:12;;;;;;;;;4.00;4.00;;;;;27.46;37.79;100619.88;5091670;28;8846;-64
2022/06/17 09:41:40;;;;;;;;;7.00;7.00;;;;;27.52;37.66;100619.84;5091953;28;8850;-64
2022/06/17 09:44:08;;;;;;;;;7.00;6.80;;;;;27.56;37.25;100612.88;5091795;28;8984;-64
2022/06/17 09:46:36;;;;;;;;;4.00;4.00;;;;;27.61;38.17;100612.25;5090908;28;8847;-64
2022/06/17 09:49:05;;;;;;;;;4.00;4.00;;;;;27.70;37.35;100616.44;5090381;28;8860;-65
2022/06/17 09:51:32;;;;;;;;;5.80;5.80;;;;;27.69;37.87;100617.50;5091250;28;8852;-64
2022/06/17 09:54:00;;;;;;;;;7.80;7.80;;;;;27.70;37.46;100610.94;5090049;28;8842;-64
2022/06/17 09:56:28;;;;;;;;;7.00;7.00;;;;;27.77;38.00;100604.41;5091470;28;8984;-64
2022/06/17 09:58:57;;;;;;;;;7.00;7.00;;;;;27.87;37.43;100598.47;5091403;28;8848;-64
2022/06/17 10:01:24;;;;;;;;;7.00;7.00;;;;;28.06;37.38;100592.09;5092973;28;8838;-64
2022/06/17 10:03:52;;;;;;;;;5.40;5.40;;;;;28.23;37.01;100595.97;5094579;28;8841;-64
2022/06/17 10:06:21;;;;;;;;;6.20;5.80;;;;;28.49;36.42;100602.16;5094688;28;8863;-64
2022/06/17 10:08:49;;;;;;;;;5.40;4.60;;;;;28.77;36.45;100607.22;5094271;28;8872;-64
2022/06/17 10:11:17;;;;;;;;;4.00;4.00;;;;;29.00;36.08;100608.34;5094285;28;8872;-64
2022/06/17 10:13:45;;;;;;;;;3.40;3.40;;;;;29.34;35.30;100598.72;5094213;28;9564;-64
2022/06/17 10:19:01;;;;;;;;;5.20;5.00;;;;;29.69;34.76;100578.69;5053713;28;8846;-64
2022/06/17 10:21:29;;;;;;;;;6.20;6.20;;;;;29.83;34.78;100573.88;5094860;28;8863;-64
2022/06/17 10:23:57;;;;;;;;;5.00;4.40;;;;;30.17;34.39;100570.50;5095153;28;8833;-64
2022/06/17 10:26:24;;;;;;;;;2.60;2.00;;;;;30.35;34.33;100578.66;5094658;28;8842;-64
2022/06/17 10:28:52;;;;;;;;;3.00;3.00;;;;;30.66;33.66;100573.78;5095656;28;8863;-64
2022/06/17 10:31:20;;;;;;;;;6.00;5.00;;;;;31.17;33.55;100574.78;5096248;28;8924;-64
2022/06/17 10:33:48;;;;;;;;;5.00;5.00;;;;;31.86;32.41;100571.94;5095510;28;8922;-64
2022/06/17 10:36:17;;;;;;;;;5.00;5.00;;;;;32.37;32.57;100568.28;5094117;28;8856;-65
2022/06/17 10:38:45;;;;;;;;;5.20;5.00;;;;;32.40;32.32;100568.63;5094840;28;8919;-65
2022/06/17 10:41:13;;;;;;;;;5.40;4.60;;;;;32.16;33.03;100566.22;5093785;28;8853;-65
2022/06/17 10:43:41;;;;;;;;;5.00;5.00;;;;;32.14;32.21;100557.31;5094828;28;9299;-65
2022/06/17 10:46:09;;;;;;;;;5.60;5.60;;;;;32.03;32.75;100556.28;5093469;28;8996;-64
2022/06/17 10:48:37;;;;;;;;;6.00;5.00;;;;;31.98;32.56;100558.13;5093396;28;8841;-65
2022/06/17 10:51:05;;;;;;;;;5.80;5.40;;;;;32.09;32.64;100551.72;5092754;28;8829;-64
2022/06/17 10:53:34;;;;;;;;;5.40;5.00;;;;;32.47;32.86;100551.91;5093607;28;8902;-64
2022/06/17 10:56:01;;;;;;;;;5.40;5.40;;;;;33.06;31.33;100548.53;5093157;28;8833;-65
2022/06/17 10:58:30;;;;;;;;;3.20;3.20;;;;;33.30;31.26;100545.31;5092882;28;8976;-65
2022/06/17 11:00:58;;;;;;;;;4.20;3.80;;;;;33.18;31.58;100552.84;5092976;28;8966;-65
2022/06/17 11:03:26;;;;;;;;;5.00;5.00;;;;;33.05;31.44;100546.81;5093625;28;8826;-65
2022/06/17 11:05:54;;;;;;;;;5.20;5.00;;;;;32.84;32.11;100558.66;5094580;28;8842;-65
2022/06/17 11:08:22;;;;;;;;;5.40;4.80;;;;;32.65;32.18;100551.66;5092632;28;8972;-65
2022/06/17 11:10:50;;;;;;;;;5.40;5.00;;;;;32.53;32.73;100546.22;5092931;28;8838;-65
2022/06/17 11:13:17;;;;;;;;;5.60;5.60;;;;;32.81;31.88;100545.34;5093374;28;8842;-65
2022/06/17 11:15:45;;;;;;;;;3.80;3.80;;;;;33.26;31.94;100554.34;5091974;28;8842;-64
2022/06/17 11:18:13;;;;;;;;;4.00;4.00;;;;;33.42;31.39;100557.09;5091582;28;8849;-65
2022/06/17 11:20:42;;;;;;;;;5.20;4.00;;;;;33.49;30.45;100559.66;5092602;28;8970;-66
2022/06/17 11:23:20;;;;;;;;;5.00;5.00;;;;;32.97;31.13;100556.38;5091264;28;8834;-65
2022/06/17 11:25:48;;;;;;;;;5.00;5.00;;;;;32.55;31.58;100562.53;5089598;28;9222;-65
2022/06/17 11:28:16;;;;;;;;;2.80;2.80;;;;;32.36;31.80;100555.56;5090361;28;8974;-65
2022/06/17 11:30:44;;;;;;;;;4.00;4.00;;;;;32.40;31.94;100551.25;5091045;28;8833;-64
2022/06/17 11:33:12;;;;;;;;;3.60;3.60;;;;;32.48;32.09;100557.16;5091916;28;8853;-65
2022/06/17 11:35:40;;;;;;;;;3.00;3.00;;;;;32.52;31.54;100546.47;5091525;28;8826;-65
2022/06/17 11:38:07;;;;;;;;;3.00;3.00;;;;;32.42;31.59;100552.66;5091206;28;8846;-65
2022/06/17 11:40:36;;;;;;;;;3.00;3.00;;;;;32.40;32.04;100542.97;5091871;28;9125;-64
2022/06/17 11:43:03;;;;;;;;;3.40;3.40;;;;;32.33;31.81;100536.75;5092476;28;8980;-64
2022/06/17 11:45:31;;;;;;;;;2.00;2.00;;;;;32.24;32.09;100535.50;5092408;28;8888;-65